Time;durP1;ratioP1;P1;durP2;ratioP2;P2;SDS_P1;SDS_P2;PMS_P1;PMS_P2;Temp;Humidity;BMP_temperature;BMP_pressure;BME280_temperature;BME280_humidity;BME280_pressure;Samples;Min_cycle;Max_cycle;Signal;HPM_P1;HPM_P2
2022/11/17 00:02:00;;;;;;;;;;;;;;;10.33;100.00;98759.88;6015173;23;19917;-54
2022/11/17 00:04:27;;;;;;;;;;;;;;;10.37;100.00;98755.41;6014737;23;19924;-55
2022/11/17 00:06:58;;;;;;;;;;;;;;;10.34;100.00;98756.84;6040251;23;19918;-54
2022/11/17 00:09:25;;;;;;;;;;;;;;;10.38;100.00;98746.09;6040251;23;19917;-54
2022/11/17 00:14:40;;;;;;;;;;;;;;;10.48;100.00;98732.19;6013938;23;20332;-55
2022/11/17 00:17:08;;;;;;;;;;;;;;;10.37;100.00;98715.38;6039669;23;19946;-52
2022/11/17 00:22:22;;;;;;;;;;;;;;;10.30;100.00;98704.16;6039815;23;19918;-54
2022/11/17 00:24:50;;;;;;;;;;;;;;;10.39;100.00;98693.25;6039785;23;19918;-56
2022/11/17 00:27:18;;;;;;;;;;;;;;;10.41;100.00;98686.41;6039493;23;19917;-53
2022/11/17 00:29:45;;;;;;;;;;;;;;;10.38;100.00;98681.56;6039680;23;19922;-52
2022/11/17 00:34:59;;;;;;;;;;;;;;;10.30;100.00;98663.31;6040153;23;20327;-54
2022/11/17 00:37:27;;;;;;;;;;;;;;;10.35;100.00;98665.09;6015469;23;19970;-52
2022/11/17 00:39:55;;;;;;;;;;;;;;;10.36;100.00;98655.78;6014455;23;19918;-52
2022/11/17 00:42:27;;;;;;;;;;;;;;;10.41;100.00;98639.28;6039827;23;19966;-53
2022/11/17 00:44:54;;;;;;;;;;;;;;;10.38;100.00;98623.59;6039978;23;19918;-55
2022/11/17 00:47:22;;;;;;;;;;;;;;;10.42;100.00;98621.84;6039986;23;19922;-54
2022/11/17 00:49:49;;;;;;;;;;;;;;;10.51;100.00;98630.00;6039561;23;19918;-55
2022/11/17 00:52:17;;;;;;;;;;;;;;;10.50;100.00;98622.97;6039937;23;19922;-51
2022/11/17 00:54:44;;;;;;;;;;;;;;;10.51;100.00;98622.66;6014811;23;19917;-54
2022/11/17 00:57:12;;;;;;;;;;;;;;;10.51;100.00;98617.22;6039685;23;19941;-54
2022/11/17 00:59:39;;;;;;;;;;;;;;;10.50;100.00;98593.81;6039739;23;20305;-55
2022/11/17 01:02:06;;;;;;;;;;;;;;;10.52;100.00;98597.00;6039676;23;19921;-54
2022/11/17 01:04:34;;;;;;;;;;;;;;;10.52;100.00;98588.84;6015053;23;19973;-54
2022/11/17 01:07:01;;;;;;;;;;;;;;;10.50;100.00;98601.97;6039846;23;19918;-55
2022/11/17 01:09:29;;;;;;;;;;;;;;;10.54;100.00;98593.97;6039501;23;19917;-51
2022/11/17 01:11:56;;;;;;;;;;;;;;;10.58;100.00;98603.09;6014586;23;19929;-52
2022/11/17 01:14:25;;;;;;;;;;;;;;;10.61;100.00;98597.00;6039513;23;19918;-49
2022/11/17 01:16:53;;;;;;;;;;;;;;;10.59;100.00;98588.34;5991164;23;19917;-53
2022/11/17 01:19:20;;;;;;;;;;;;;;;10.63;100.00;98602.91;6014329;23;19921;-53
2022/11/17 01:21:48;;;;;;;;;;;;;;;10.60;100.00;98611.72;5991724;23;20394;-52
2022/11/17 01:24:15;;;;;;;;;;;;;;;10.54;100.00;98607.59;6039492;23;19933;-54
2022/11/17 01:26:43;;;;;;;;;;;;;;;10.54;100.00;98602.94;6039560;23;20016;-53
2022/11/17 01:29:12;;;;;;;;;;;;;;;10.58;100.00;98576.69;6014800;23;19941;-55
2022/11/17 01:31:42;;;;;;;;;;;;;;;10.56;100.00;98597.97;6013937;23;19922;-51
2022/11/17 01:34:09;;;;;;;;;;;;;;;10.57;100.00;98580.50;6017194;23;19924;-50
2022/11/17 01:39:24;;;;;;;;;;;;;;;10.61;100.00;98576.03;6020338;23;19973;-54
2022/11/17 01:41:52;;;;;;;;;;;;;;;10.60;100.00;98574.41;5993296;23;20331;-52
2022/11/17 01:44:34;;;;;;;;;;;;;;;10.64;100.00;98569.13;6015663;23;20292;-56
2022/11/17 01:47:03;;;;;;;;;;;;;;;10.62;100.00;98552.31;6041448;23;19925;-52
2022/11/17 01:49:30;;;;;;;;;;;;;;;10.63;100.00;98553.88;6016531;23;19918;-55
2022/11/17 01:52:02;;;;;;;;;;;;;;;10.63;100.00;98556.63;6041514;23;20232;-53
2022/11/17 01:54:29;;;;;;;;;;;;;;;10.65;100.00;98554.38;5992862;23;19918;-55
2022/11/17 01:56:59;;;;;;;;;;;;;;;10.63;100.00;98530.22;6015854;23;19922;-52
2022/11/17 01:59:32;;;;;;;;;;;;;;;10.65;100.00;98536.13;6041424;23;20345;-52
2022/11/17 02:01:59;;;;;;;;;;;;;;;10.66;100.00;98537.72;6041496;23;19918;-52
2022/11/17 02:04:37;;;;;;;;;;;;;;;10.65;100.00;98538.03;5992858;23;19973;-53
2022/11/17 02:07:04;;;;;;;;;;;;;;;10.62;100.00;98534.03;6040700;23;19922;-54
2022/11/17 02:09:32;;;;;;;;;;;;;;;10.63;100.00;98530.22;6041208;23;20343;-54
2022/11/17 02:11:59;;;;;;;;;;;;;;;10.63;100.00;98530.22;6016592;23;19917;-54
2022/11/17 02:14:27;;;;;;;;;;;;;;;10.63;100.00;98530.22;6016156;23;19929;-57
2022/11/17 02:16:54;;;;;;;;;;;;;;;10.65;100.00;98533.41;6040693;23;19918;-51
2022/11/17 02:19:22;;;;;;;;;;;;;;;10.65;100.00;98529.84;6016063;23;19918;-56
2022/11/17 02:21:49;;;;;;;;;;;;;;;10.66;100.00;98517.88;6016274;23;19965;-49
2022/11/17 02:24:23;;;;;;;;;;;;;;;10.69;100.00;98510.97;6040666;23;19921;-55
2022/11/17 02:26:56;;;;;;;;;;;;;;;10.68;100.00;98528.41;6047817;23;19918;-52
2022/11/17 02:29:26;;;;;;;;;;;;;;;10.68;100.00;98520.25;6052507;23;19917;-54
2022/11/17 02:32:00;;;;;;;;;;;;;;;10.69;100.00;98510.97;6004766;23;19926;-54
2022/11/17 02:34:27;;;;;;;;;;;;;;;10.68;100.00;98506.63;6015178;23;19954;-51
2022/11/17 02:36:59;;;;;;;;;;;;;;;10.70;100.00;98501.66;6040855;23;19973;-51
2022/11/17 02:39:30;;;;;;;;;;;;;;;10.71;100.00;98497.81;6015698;23;20335;-54
2022/11/17 02:42:02;;;;;;;;;;;;;;;10.70;100.00;98497.00;6017014;23;19936;-51
2022/11/17 02:44:32;;;;;;;;;;;;;;;10.71;100.00;98495.91;6047502;23;19918;-53
2022/11/17 02:47:07;;;;;;;;;;;;;;;10.71;100.00;98493.16;6049640;23;19918;-53
2022/11/17 02:49:36;;;;;;;;;;;;;;;10.70;100.00;98475.22;6048441;23;19917;-52
2022/11/17 02:52:03;;;;;;;;;;;;;;;10.73;100.00;98473.78;6024575;23;19918;-56
2022/11/17 02:54:31;;;;;;;;;;;;;;;10.74;100.00;98486.28;6016861;23;19922;-55
2022/11/17 02:56:58;;;;;;;;;;;;;;;10.74;100.00;98480.81;6040759;23;19918;-52
2022/11/17 02:59:30;;;;;;;;;;;;;;;10.75;100.00;98480.50;6040573;23;19917;-56
2022/11/17 03:02:09;;;;;;;;;;;;;;;10.75;100.00;98471.50;6014979;23;19922;-54
2022/11/17 03:04:55;;;;;;;;;;;;;;;10.71;100.00;98470.59;6040728;23;19926;-53
2022/11/17 03:07:22;;;;;;;;;;;;;;;10.70;100.00;98460.81;6040783;23;19925;-52
2022/11/17 03:10:00;;;;;;;;;;;;;;;10.71;100.00;98443.34;6040820;23;19918;-53
2022/11/17 03:12:30;;;;;;;;;;;;;;;10.70;100.00;98428.13;6015356;23;19973;-53
2022/11/17 03:15:16;;;;;;;;;;;;;;;10.73;100.00;98408.44;6015816;23;19965;-53
2022/11/17 03:17:47;;;;;;;;;;;;;;;10.75;100.00;98411.59;6040687;23;19918;-55
2022/11/17 03:20:19;;;;;;;;;;;;;;;10.75;100.00;98414.31;6015322;23;19969;-55
2022/11/17 03:22:57;;;;;;;;;;;;;;;10.74;100.00;98418.19;6015959;23;19924;-54
2022/11/17 03:25:25;;;;;;;;;;;;;;;10.74;100.00;98416.25;6019321;23;19918;-53
2022/11/17 03:27:55;;;;;;;;;;;;;;;10.75;100.00;98411.59;6038669;23;19944;-52
2022/11/17 03:30:24;;;;;;;;;;;;;;;10.73;100.00;98411.94;6039020;23;19918;-54
2022/11/17 03:32:53;;;;;;;;;;;;;;;10.71;100.00;98403.28;6015147;23;19918;-52
2022/11/17 03:35:22;;;;;;;;;;;;;;;10.72;100.00;98404.09;6038661;23;19918;-53
2022/11/17 03:37:54;;;;;;;;;;;;;;;10.72;100.00;98413.06;5991958;23;19973;-52
2022/11/17 03:40:22;;;;;;;;;;;;;;;10.72;100.00;98402.16;6040579;23;19922;-55
2022/11/17 03:42:52;;;;;;;;;;;;;;;10.72;100.00;98402.16;6038912;23;19918;-53
2022/11/17 03:45:30;;;;;;;;;;;;;;;10.71;100.00;98391.59;6040166;23;19918;-53
2022/11/17 03:48:04;;;;;;;;;;;;;;;10.71;100.00;98389.69;6038930;23;19921;-53
2022/11/17 03:50:39;;;;;;;;;;;;;;;10.76;100.00;98383.25;6040611;23;19925;-55
2022/11/17 03:53:07;;;;;;;;;;;;;;;10.75;100.00;98381.63;6038667;23;19918;-51
2022/11/17 03:55:41;;;;;;;;;;;;;;;10.74;100.00;98393.66;6039903;23;19946;-55
2022/11/17 03:58:09;;;;;;;;;;;;;;;10.74;100.00;98389.00;6014995;23;19928;-55
2022/11/17 04:00:37;;;;;;;;;;;;;;;10.73;100.00;98384.69;6039755;23;20296;-55
2022/11/17 04:03:04;;;;;;;;;;;;;;;10.69;100.00;98380.25;6038967;23;20295;-55
2022/11/17 04:05:32;;;;;;;;;;;;;;;10.66;100.00;98382.50;6039908;23;19922;-54
2022/11/17 04:07:59;;;;;;;;;;;;;;;10.64;100.00;98373.84;6039869;23;19973;-52
2022/11/17 04:10:27;;;;;;;;;;;;;;;10.67;100.00;98383.28;6040396;23;20012;-50
2022/11/17 04:15:56;;;;;;;;;;;;;;;10.69;100.00;98369.34;6040203;23;19925;-54
2022/11/17 04:18:23;;;;;;;;;;;;;;;10.66;100.00;98379.75;6039674;23;19966;-53
2022/11/17 04:20:52;;;;;;;;;;;;;;;10.69;100.00;98369.34;6038442;23;19917;-53
2022/11/17 04:23:19;;;;;;;;;;;;;;;10.70;100.00;98371.72;6038887;23;19966;-52
2022/11/17 04:28:37;;;;;;;;;;;;;;;10.74;100.00;98334.53;6038113;23;19917;-55
2022/11/17 04:31:15;;;;;;;;;;;;;;;10.76;100.00;98342.38;6038357;23;20342;-53
2022/11/17 04:33:46;;;;;;;;;;;;;;;10.75;100.00;98351.66;6038457;23;20423;-52
2022/11/17 04:36:14;;;;;;;;;;;;;;;10.77;100.00;98349.41;6038536;23;19918;-54
2022/11/17 04:38:42;;;;;;;;;;;;;;;10.74;100.00;98344.63;6039942;23;19921;-53
2022/11/17 04:43:56;;;;;;;;;;;;;;;10.75;100.00;98346.22;6039575;23;19922;-54
2022/11/17 04:46:24;;;;;;;;;;;;;;;10.77;100.00;98338.53;6039662;23;19921;-53
2022/11/17 04:48:52;;;;;;;;;;;;;;;10.76;100.00;98326.06;5991597;23;19917;-55
2022/11/17 04:51:20;;;;;;;;;;;;;;;10.74;100.00;98333.75;6038616;23;19918;-51
2022/11/17 04:53:48;;;;;;;;;;;;;;;10.71;100.00;98350.75;6040181;23;19918;-51
2022/11/17 04:56:20;;;;;;;;;;;;;;;10.86;100.00;98352.91;6037702;23;20280;-53
2022/11/17 04:58:47;;;;;;;;;;;;;;;10.81;100.00;98343.00;6037568;23;19918;-56
2022/11/17 05:01:16;;;;;;;;;;;;;;;10.77;100.00;98333.06;6038015;23;19918;-53
2022/11/17 05:03:48;;;;;;;;;;;;;;;10.73;100.00;98332.16;6039841;23;19918;-55
2022/11/17 05:06:17;;;;;;;;;;;;;;;10.66;100.00;98336.19;6038284;23;19922;-54
2022/11/17 05:08:44;;;;;;;;;;;;;;;10.64;100.00;98330.28;6039793;23;19918;-52
2022/11/17 05:13:58;;;;;;;;;;;;;;;10.56;100.00;98316.69;6042130;23;20517;-56
2022/11/17 05:19:14;;;;;;;;;;;;;;;10.60;100.00;98314.94;6041366;23;19922;-56
2022/11/17 05:21:41;;;;;;;;;;;;;;;10.64;100.00;98311.22;6041633;23;19918;-53
2022/11/17 05:24:09;;;;;;;;;;;;;;;10.68;100.00;98310.53;6038021;23;19922;-52
2022/11/17 05:26:36;;;;;;;;;;;;;;;10.69;100.00;98309.44;6040824;23;19917;-52
2022/11/17 05:29:04;;;;;;;;;;;;;;;10.70;100.00;98319.19;6040668;23;20331;-55
2022/11/17 05:31:32;;;;;;;;;;;;;;;10.65;100.00;98314.72;6016477;23;19918;-53
2022/11/17 05:34:00;;;;;;;;;;;;;;;10.64;100.00;98315.88;6041479;23;20024;-54
2022/11/17 05:36:27;;;;;;;;;;;;;;;10.63;100.00;98320.53;6040975;23;19921;-55
2022/11/17 05:38:55;;;;;;;;;;;;;;;10.62;100.00;98339.91;6016137;23;19922;-54
2022/11/17 05:41:23;;;;;;;;;;;;;;;10.61;100.00;98324.69;6016308;23;19946;-55
2022/11/17 05:43:50;;;;;;;;;;;;;;;10.61;100.00;98341.84;6041541;23;19921;-53
2022/11/17 05:46:18;;;;;;;;;;;;;;;10.58;100.00;98350.66;6016180;23;19917;-56
2022/11/17 05:48:48;;;;;;;;;;;;;;;10.74;100.00;98340.00;6015930;23;19924;-52
2022/11/17 05:51:17;;;;;;;;;;;;;;;11.14;100.00;98346.94;6038221;23;19925;-48
2022/11/17 05:53:44;;;;;;;;;;;;;;;11.08;100.00;98355.28;6037493;23;19918;-51
2022/11/17 05:56:12;;;;;;;;;;;;;;;11.01;100.00;98349.56;6037689;23;19917;-53
2022/11/17 05:58:40;;;;;;;;;;;;;;;10.98;100.00;98355.69;6036974;23;19948;-49
2022/11/17 06:01:07;;;;;;;;;;;;;;;10.90;100.00;98356.56;5988829;23;19922;-52
2022/11/17 06:03:36;;;;;;;;;;;;;;;10.82;100.00;98357.41;6012863;23;19918;-54
2022/11/17 06:06:04;;;;;;;;;;;;;;;10.71;100.00;98357.00;6012879;23;19921;-54
2022/11/17 06:08:35;;;;;;;;;;;;;;;10.71;100.00;98354.28;6013216;23;19989;-51
2022/11/17 06:11:02;;;;;;;;;;;;;;;10.74;100.00;98352.81;6037311;23;19989;-52
2022/11/17 06:13:33;;;;;;;;;;;;;;;10.81;100.00;98355.81;6012490;23;19940;-51
2022/11/17 06:16:01;;;;;;;;;;;;;;;10.83;100.00;98356.28;6012395;23;20251;-53
2022/11/17 06:18:33;;;;;;;;;;;;;;;10.74;100.00;98358.25;6037015;23;19922;-53
2022/11/17 06:21:01;;;;;;;;;;;;;;;10.65;100.00;98359.13;6037028;23;19928;-53
2022/11/17 06:23:29;;;;;;;;;;;;;;;10.66;100.00;98374.31;6012074;23;19921;-54
2022/11/17 06:25:59;;;;;;;;;;;;;;;10.66;100.00;98366.16;6037057;23;20541;-50
2022/11/17 06:28:27;;;;;;;;;;;;;;;10.69;100.00;98361.97;6036571;23;19926;-54
2022/11/17 06:30:54;;;;;;;;;;;;;;;10.74;100.00;98363.72;6037500;23;20532;-54
2022/11/17 06:33:22;;;;;;;;;;;;;;;10.72;100.00;98372.19;5988815;23;19922;-51
2022/11/17 06:35:49;;;;;;;;;;;;;;;10.78;100.00;98362.72;6012119;23;19932;-51
2022/11/17 06:38:20;;;;;;;;;;;;;;;10.79;100.00;98371.69;6012206;23;20227;-52
2022/11/17 06:40:47;;;;;;;;;;;;;;;10.86;100.00;98380.13;6036947;23;19922;-55
2022/11/17 06:43:15;;;;;;;;;;;;;;;10.98;100.00;98382.94;6011529;23;20331;-52
2022/11/17 06:45:46;;;;;;;;;;;;;;;10.89;100.00;98382.19;6037107;23;19969;-48
2022/11/17 06:48:14;;;;;;;;;;;;;;;11.30;100.00;98377.91;6011848;23;19922;-49
2022/11/17 06:50:42;;;;;;;;;;;;;;;11.19;100.00;98379.44;6035723;23;19977;-56
2022/11/17 06:53:10;;;;;;;;;;;;;;;11.18;100.00;98391.47;6035792;23;20029;-51
2022/11/17 06:55:38;;;;;;;;;;;;;;;11.06;100.00;98386.72;6011248;23;19922;-50
2022/11/17 06:58:07;;;;;;;;;;;;;;;11.09;100.00;98395.06;6038349;23;19924;-53
2022/11/17 07:00:35;;;;;;;;;;;;;;;11.26;100.00;98398.78;6040062;23;19921;-50
2022/11/17 07:03:04;;;;;;;;;;;;;;;11.50;100.00;98406.31;6040275;23;20042;-52
2022/11/17 07:05:32;;;;;;;;;;;;;;;11.45;100.00;98412.75;6040350;23;19924;-54
2022/11/17 07:08:01;;;;;;;;;;;;;;;11.44;100.00;98405.69;6015354;23;19922;-52
2022/11/17 07:10:31;;;;;;;;;;;;;;;11.23;100.00;98423.97;6015854;23;20001;-54
2022/11/17 07:12:59;;;;;;;;;;;;;;;11.13;100.00;98416.19;5991538;23;19918;-50
2022/11/17 07:15:26;;;;;;;;;;;;;;;11.15;100.00;98419.38;6040002;23;19945;-55
2022/11/17 07:17:54;;;;;;;;;;;;;;;11.13;100.00;98424.38;6015247;23;20350;-53
2022/11/17 07:20:21;;;;;;;;;;;;;;;11.30;100.00;98419.59;6040079;23;19918;-52
2022/11/17 07:22:49;;;;;;;;;;;;;;;11.57;100.00;98425.66;6040080;23;19952;-52
2022/11/17 07:25:17;;;;;;;;;;;;;;;11.68;100.00;98423.31;6039995;23;19918;-56
2022/11/17 07:27:55;;;;;;;;;;;;;;;11.88;100.00;98413.53;6039259;23;19923;-52
2022/11/17 07:30:23;;;;;;;;;;;;;;;11.99;100.00;98417.44;6039464;23;19917;-54
2022/11/17 07:32:50;;;;;;;;;;;;;;;11.96;100.00;98426.31;6014977;23;20259;-53
2022/11/17 07:35:21;;;;;;;;;;;;;;;11.86;100.00;98427.50;6040101;23;19918;-51
2022/11/17 07:37:48;;;;;;;;;;;;;;;11.71;100.00;98430.81;6040108;23;19996;-50
2022/11/17 07:40:16;;;;;;;;;;;;;;;11.50;100.00;98434.38;6039711;23;20350;-52
2022/11/17 07:42:47;;;;;;;;;;;;;;;11.22;100.00;98442.25;6039189;23;20262;-53
2022/11/17 07:45:16;;;;;;;;;;;;;;;11.07;100.00;98446.38;6015240;23;19924;-50
2022/11/17 07:47:44;;;;;;;;;;;;;;;10.90;100.00;98449.19;6040199;23;19918;-51
2022/11/17 07:50:11;;;;;;;;;;;;;;;10.82;100.00;98456.28;6039783;23;19918;-54
2022/11/17 07:52:39;;;;;;;;;;;;;;;10.75;100.00;98458.72;6039892;23;20231;-54
2022/11/17 07:55:08;;;;;;;;;;;;;;;10.75;100.00;98471.50;6039837;23;20004;-54
2022/11/17 07:57:35;;;;;;;;;;;;;;;10.90;100.00;98467.47;5991200;23;19918;-55
2022/11/17 08:00:03;;;;;;;;;;;;;;;10.90;100.00;98467.47;6015156;23;19917;-51
2022/11/17 08:02:38;;;;;;;;;;;;;;;10.83;100.00;98466.03;6040081;23;19918;-53
2022/11/17 08:05:06;;;;;;;;;;;;;;;10.82;100.00;98469.09;6039859;23;19918;-55
2022/11/17 08:07:33;;;;;;;;;;;;;;;10.78;100.00;98470.88;6038148;23;19918;-56
2022/11/17 08:10:01;;;;;;;;;;;;;;;10.89;100.00;98477.53;6039818;23;19941;-52
2022/11/17 08:12:29;;;;;;;;;;;;;;;10.92;100.00;98476.09;6040074;23;19946;-57
2022/11/17 08:14:56;;;;;;;;;;;;;;;11.04;100.00;98478.91;6039468;23;19918;-51
2022/11/17 08:17:24;;;;;;;;;;;;;;;11.00;100.00;98484.22;6039759;23;20319;-50
2022/11/17 08:19:51;;;;;;;;;;;;;;;10.95;100.00;98487.13;6039938;23;19922;-49
2022/11/17 08:22:21;;;;;;;;;;;;;;;10.93;100.00;98489.38;6040073;23;19929;-49
2022/11/17 08:24:51;;;;;;;;;;;;;;;10.83;100.00;98492.50;6014103;23;19925;-50
2022/11/17 08:27:19;;;;;;;;;;;;;;;10.78;100.00;98503.56;5990824;23;20254;-48
2022/11/17 08:29:46;;;;;;;;;;;;;;;10.66;100.00;98491.41;6039576;23;19972;-48
2022/11/17 08:32:14;;;;;;;;;;;;;;;10.61;100.00;98504.44;6039470;23;20332;-47
2022/11/17 08:34:42;;;;;;;;;;;;;;;10.59;100.00;98499.28;6039792;23;20000;-50
2022/11/17 08:37:09;;;;;;;;;;;;;;;10.53;100.00;98508.75;6039479;23;19918;-48
2022/11/17 08:39:37;;;;;;;;;;;;;;;10.54;100.00;98509.56;6039596;23;19918;-46
2022/11/17 08:42:05;;;;;;;;;;;;;;;10.71;100.00;98495.91;6039660;23;19918;-48
2022/11/17 08:44:36;;;;;;;;;;;;;;;10.88;100.00;98504.00;6039793;23;19982;-49
2022/11/17 08:47:03;;;;;;;;;;;;;;;11.01;100.00;98502.16;6039696;23;19918;-52
2022/11/17 08:49:31;;;;;;;;;;;;;;;11.03;100.00;98501.84;6035972;23;20440;-52
2022/11/17 08:51:58;;;;;;;;;;;;;;;10.98;100.00;98508.28;6036250;23;19928;-52
2022/11/17 08:54:28;;;;;;;;;;;;;;;11.07;100.00;98517.22;6036352;23;20335;-53
2022/11/17 08:56:59;;;;;;;;;;;;;;;11.48;100.00;98518.44;6036011;23;20525;-53
2022/11/17 08:59:26;;;;;;;;;;;;;;;11.73;100.00;98515.84;6035766;23;19922;-55
2022/11/17 09:01:54;;;;;;;;;;;;;;;11.75;100.00;98524.50;6036010;23;19921;-57
2022/11/17 09:04:21;;;;;;;;;;;;;;;11.82;100.00;98513.06;6035546;23;19922;-56
2022/11/17 09:06:49;;;;;;;;;;;;;;;11.86;100.00;98520.25;6036014;23;20203;-52
2022/11/17 09:09:17;;;;;;;;;;;;;;;11.84;100.00;98516.25;6036224;23;20296;-53
2022/11/17 09:11:44;;;;;;;;;;;;;;;11.69;100.00;98525.84;6036108;23;19929;-54
2022/11/17 09:14:12;;;;;;;;;;;;;;;11.61;100.00;98530.22;6035487;23;20335;-54
2022/11/17 09:16:39;;;;;;;;;;;;;;;11.59;100.00;98528.94;6035880;23;19917;-54
2022/11/17 09:19:07;;;;;;;;;;;;;;;11.55;100.00;98531.56;6035694;23;19928;-53
2022/11/17 09:21:34;;;;;;;;;;;;;;;11.48;100.00;98537.53;6036037;23;19921;-52
2022/11/17 09:24:02;;;;;;;;;;;;;;;11.47;100.00;98540.56;6036433;23;19922;-51
2022/11/17 09:26:30;;;;;;;;;;;;;;;11.70;100.00;98543.81;6036202;23;19922;-54
2022/11/17 09:29:01;;;;;;;;;;;;;;;11.58;100.00;98543.72;6035158;23;19929;-51
2022/11/17 09:31:29;;;;;;;;;;;;;;;11.72;100.00;98549.72;6036129;23;19949;-54
2022/11/17 09:33:57;;;;;;;;;;;;;;;11.92;100.00;98557.16;6035968;23;19945;-52
2022/11/17 09:36:30;;;;;;;;;;;;;;;12.03;100.00;98552.09;6010940;23;19922;-53
2022/11/17 09:38:57;;;;;;;;;;;;;;;12.02;100.00;98561.41;6036221;23;19977;-50
2022/11/17 09:41:26;;;;;;;;;;;;;;;12.32;100.00;98562.13;6036184;23;19925;-49
2022/11/17 09:44:03;;;;;;;;;;;;;;;12.31;100.00;98574.19;6010740;23;19918;-53
2022/11/17 09:46:31;;;;;;;;;;;;;;;12.11;100.00;98569.53;6036250;23;19944;-50
2022/11/17 09:49:05;;;;;;;;;;;;;;;12.16;100.00;98569.31;6036148;23;19944;-52
2022/11/17 09:51:33;;;;;;;;;;;;;;;12.02;100.00;98585.19;6035657;23;19921;-54
2022/11/17 09:54:02;;;;;;;;;;;;;;;11.94;100.00;98592.28;6012479;23;19918;-52
2022/11/17 09:56:30;;;;;;;;;;;;;;;11.87;100.00;98587.34;6038494;23;19923;-51
2022/11/17 09:59:00;;;;;;;;;;;;;;;11.62;100.00;98589.09;6037824;23;19921;-54
2022/11/17 10:01:27;;;;;;;;;;;;;;;11.39;100.00;98583.13;6012774;23;19922;-51
2022/11/17 10:03:57;;;;;;;;;;;;;;;11.21;100.00;98595.25;6012569;23;19924;-52
2022/11/17 10:06:28;;;;;;;;;;;;;;;11.08;100.00;98589.66;6013277;23;19924;-55
2022/11/17 10:08:59;;;;;;;;;;;;;;;11.11;100.00;98599.09;6013422;23;19921;-55
2022/11/17 10:11:31;;;;;;;;;;;;;;;11.12;100.00;98600.72;6037421;23;19917;-50
2022/11/17 10:14:07;;;;;;;;;;;;;;;11.15;100.00;98602.00;6036981;23;19929;-54
2022/11/17 10:16:35;;;;;;;;;;;;;;;11.18;100.00;98596.66;6037697;23;19929;-49
2022/11/17 10:19:15;;;;;;;;;;;;;;;11.21;100.00;98597.97;6012642;23;19926;-49
2022/11/17 10:21:43;;;;;;;;;;;;;;;11.35;100.00;98595.78;6012085;23;19932;-53
2022/11/17 10:24:10;;;;;;;;;;;;;;;11.68;100.00;98601.41;6037113;23;19928;-49
2022/11/17 10:26:47;;;;;;;;;;;;;;;11.90;100.00;98596.81;6037262;23;19972;-53
2022/11/17 10:29:15;;;;;;;;;;;;;;;12.24;100.00;98601.25;6001911;23;19917;-52
2022/11/17 10:31:44;;;;;;;;;;;;;;;12.28;100.00;98606.81;6035792;23;19957;-54
2022/11/17 10:34:12;;;;;;;;;;;;;;;12.48;100.00;98605.19;6038355;23;20011;-55
2022/11/17 10:36:46;;;;;;;;;;;;;;;12.62;100.00;98615.84;6039692;23;19925;-54
2022/11/17 10:39:34;;;;;;;;;;;;;;;12.70;100.00;98618.50;6039464;23;19918;-51
2022/11/17 10:42:10;;;;;;;;;;;;;;;12.65;100.00;98612.44;6038930;23;20251;-51
2022/11/17 10:44:38;;;;;;;;;;;;;;;12.78;100.00;98625.81;6040872;23;19918;-51
2022/11/17 10:47:08;;;;;;;;;;;;;;;12.57;100.00;98619.56;6015767;23;19917;-52
2022/11/17 10:49:39;;;;;;;;;;;;;;;12.28;100.00;98613.06;6038919;23;19925;-51
2022/11/17 10:52:16;;;;;;;;;;;;;;;12.20;100.00;98626.81;6040677;23;19917;-52
2022/11/17 10:54:44;;;;;;;;;;;;;;;11.85;100.00;98627.78;6041361;23;19925;-51
2022/11/17 10:57:19;;;;;;;;;;;;;;;12.18;100.00;98623.59;6039261;23;20000;-50
2022/11/17 10:59:51;;;;;;;;;;;;;;;12.60;100.00;98635.28;6040448;23;20288;-48
2022/11/17 11:02:28;;;;;;;;;;;;;;;12.45;100.00;98622.25;6039148;23;20259;-50
2022/11/17 11:05:06;;;;;;;;;;;;;;;12.86;100.00;98621.38;6038708;23;19925;-50
2022/11/17 11:07:34;;;;;;;;;;;;;;;12.76;100.00;98633.53;6015694;23;19918;-50
2022/11/17 11:10:03;;;;;;;;;;;;;;;12.83;100.00;98643.13;6039874;23;19918;-48
2022/11/17 11:12:49;;;;;;;;;;;;;;;12.79;100.00;98643.81;6039661;23;19925;-50
2022/11/17 11:15:18;;;;;;;;;;;;;;;12.63;100.00;98633.81;6037262;23;19922;-50
2022/11/17 11:17:45;;;;;;;;;;;;;;;12.64;100.00;98640.91;6035629;23;19921;-51
2022/11/17 11:20:14;;;;;;;;;;;;;;;12.89;100.00;98641.78;6037348;23;19926;-54
2022/11/17 11:22:41;;;;;;;;;;;;;;;13.02;100.00;98648.88;6036536;23;19928;-51
2022/11/17 11:25:30;;;;;;;;;;;;;;;12.91;100.00;98653.16;6036598;23;20423;-50
2022/11/17 11:27:57;;;;;;;;;;;;;;;12.76;100.00;98655.41;6016088;23;19929;-53
2022/11/17 11:30:24;;;;;;;;;;;;;;;12.67;100.00;98657.41;6036405;23;19925;-48
2022/11/17 11:32:52;;;;;;;;;;;;;;;12.68;100.00;98658.22;6011637;23;19922;-51
2022/11/17 11:35:26;;;;;;;;;;;;;;;12.76;100.00;98663.59;6036684;23;19978;-51
2022/11/17 11:38:03;;;;;;;;;;;;;;;12.78;100.00;98660.53;6036828;23;19922;-53
2022/11/17 11:40:31;;;;;;;;;;;;;;;12.72;100.00;98659.97;6011128;23;20327;-52
2022/11/17 11:42:59;;;;;;;;;;;;;;;12.54;100.00;98672.94;6035736;23;19973;-50
2022/11/17 11:45:32;;;;;;;;;;;;;;;12.30;100.00;98672.81;5987844;23;19922;-51
2022/11/17 11:48:05;;;;;;;;;;;;;;;11.92;100.00;98671.75;6036589;23;19954;-51
2022/11/17 11:50:34;;;;;;;;;;;;;;;11.87;100.00;98677.41;6011374;23;19926;-50
2022/11/17 11:53:23;;;;;;;;;;;;;;;11.87;100.00;98676.63;6036469;23;19918;-51
2022/11/17 11:55:53;;;;;;;;;;;;;;;12.12;100.00;98675.66;6038173;23;19966;-54
2022/11/17 11:58:22;;;;;;;;;;;;;;;12.44;100.00;98681.56;6014951;23;19917;-50
2022/11/17 12:00:50;;;;;;;;;;;;;;;12.61;100.00;98677.88;6040140;23;19918;-53
2022/11/17 12:03:23;;;;;;;;;;;;;;;12.71;100.00;98684.88;6040213;23;19974;-52
2022/11/17 12:09:03;;;;;;;;;;;;;;;12.60;100.00;98689.94;6040285;23;19949;-52
2022/11/17 12:14:17;;;;;;;;;;;;;;;12.64;100.00;98690.88;6018526;23;19924;-51
2022/11/17 12:16:45;;;;;;;;;;;;;;;12.73;100.00;98699.78;6039356;23;19918;-52
2022/11/17 12:19:31;;;;;;;;;;;;;;;12.58;100.00;98694.94;6015348;23;20308;-50
2022/11/17 12:21:59;;;;;;;;;;;;;;;12.76;100.00;98692.84;6014835;23;19918;-51
2022/11/17 12:24:31;;;;;;;;;;;;;;;12.94;100.00;98694.31;6014836;23;19917;-52
2022/11/17 12:27:29;;;;;;;;;;;;;;;12.97;100.00;98698.31;6015253;23;20250;-49
2022/11/17 12:29:56;;;;;;;;;;;;;;;13.06;100.00;98703.66;6039466;23;19921;-50
2022/11/17 12:32:42;;;;;;;;;;;;;;;13.03;100.00;98707.09;6039654;23;19918;-50
2022/11/17 12:35:28;;;;;;;;;;;;;;;12.82;100.00;98713.41;6039406;23;19988;-50
2022/11/17 12:38:22;;;;;;;;;;;;;;;12.53;100.00;98703.31;6039914;23;19921;-51
2022/11/17 12:40:50;;;;;;;;;;;;;;;12.46;100.00;98725.72;5986601;23;19925;-50
2022/11/17 12:43:18;;;;;;;;;;;;;;;12.07;100.00;98730.44;6015415;23;19918;-50
2022/11/17 12:45:52;;;;;;;;;;;;;;;12.28;100.00;98719.56;6015260;23;19918;-52
2022/11/17 12:48:19;;;;;;;;;;;;;;;12.26;100.00;98730.00;6040119;23;19939;-50
2022/11/17 12:51:19;;;;;;;;;;;;;;;12.53;100.00;98733.38;6039652;23;19918;-49
2022/11/17 12:53:54;;;;;;;;;;;;;;;12.69;100.00;98728.91;6040114;23;19918;-52
2022/11/17 12:56:24;;;;;;;;;;;;;;;12.75;100.00;98733.06;6039882;23;19922;-51
2022/11/17 12:59:01;;;;;;;;;;;;;;;12.74;100.00;98731.44;6014783;23;20032;-51
2022/11/17 13:01:38;;;;;;;;;;;;;;;12.82;100.00;98735.25;6014996;23;19992;-51
2022/11/17 13:04:08;;;;;;;;;;;;;;;12.98;100.00;98738.16;6039856;23;19973;-51
2022/11/17 13:06:36;;;;;;;;;;;;;;;13.05;100.00;98737.63;6039654;23;19953;-49
2022/11/17 13:09:06;;;;;;;;;;;;;;;12.98;100.00;98738.16;5991063;23;19922;-51
2022/11/17 13:11:34;;;;;;;;;;;;;;;12.86;100.00;98735.38;6014047;23;20260;-53
2022/11/17 13:14:14;;;;;;;;;;;;;;;12.74;100.00;98739.63;6015140;23;19956;-52
2022/11/17 13:16:47;;;;;;;;;;;;;;;12.63;100.00;98737.63;6014683;23;19953;-48
2022/11/17 13:19:33;;;;;;;;;;;;;;;12.72;100.00;98750.13;5991287;23;19924;-50
2022/11/17 13:22:22;;;;;;;;;;;;;;;12.74;100.00;98739.63;6039953;23;19925;-52